sensor_id;sensor_type;location;lat;lon;timestamp;P1;durP1;ratioP1;P2;durP2;ratioP2
13855;SDS011;6998;53.608;9.958;2023-02-22T00:01:11;34.83;;;18.52;;
13855;SDS011;6998;53.608;9.958;2023-02-22T00:03:47;45.55;;;21.08;;
13855;SDS011;6998;53.608;9.958;2023-02-22T00:06:20;48.60;;;21.50;;
13855;SDS011;6998;53.608;9.958;2023-02-22T00:08:50;43.05;;;20.95;;
13855;SDS011;6998;53.608;9.958;2023-02-22T00:11:18;34.92;;;19.40;;
13855;SDS011;6998;53.608;9.958;2023-02-22T00:13:45;32.25;;;18.27;;
13855;SDS011;6998;53.608;9.958;2023-02-22T00:16:14;33.55;;;18.67;;
13855;SDS011;6998;53.608;9.958;2023-02-22T00:18:49;34.83;;;18.67;;
13855;SDS011;6998;53.608;9.958;2023-02-22T00:21:17;33.28;;;18.45;;
13855;SDS011;6998;53.608;9.958;2023-02-22T00:23:46;35.20;;;18.77;;
13855;SDS011;6998;53.608;9.958;2023-02-22T00:26:13;34.15;;;17.95;;
13855;SDS011;6998;53.608;9.958;2023-02-22T00:28:43;32.85;;;17.45;;
13855;SDS011;6998;53.608;9.958;2023-02-22T00:31:15;32.97;;;17.77;;
13855;SDS011;6998;53.608;9.958;2023-02-22T00:33:42;33.33;;;19.17;;
13855;SDS011;6998;53.608;9.958;2023-02-22T00:36:10;31.95;;;17.48;;
13855;SDS011;6998;53.608;9.958;2023-02-22T00:38:38;26.70;;;17.05;;
13855;SDS011;6998;53.608;9.958;2023-02-22T00:41:09;33.67;;;18.08;;
13855;SDS011;6998;53.608;9.958;2023-02-22T00:43:37;35.90;;;18.98;;
13855;SDS011;6998;53.608;9.958;2023-02-22T00:46:04;29.48;;;17.40;;
13855;SDS011;6998;53.608;9.958;2023-02-22T00:48:31;34.28;;;18.55;;
13855;SDS011;6998;53.608;9.958;2023-02-22T00:51:04;25.98;;;15.90;;
13855;SDS011;6998;53.608;9.958;2023-02-22T00:53:31;28.13;;;16.58;;
13855;SDS011;6998;53.608;9.958;2023-02-22T00:56:06;23.75;;;14.75;;
13855;SDS011;6998;53.608;9.958;2023-02-22T00:58:40;24.85;;;14.55;;
13855;SDS011;6998;53.608;9.958;2023-02-22T01:01:09;26.08;;;15.77;;
13855;SDS011;6998;53.608;9.958;2023-02-22T01:03:37;30.35;;;17.25;;
13855;SDS011;6998;53.608;9.958;2023-02-22T01:06:05;34.35;;;18.85;;
13855;SDS011;6998;53.608;9.958;2023-02-22T01:08:33;32.70;;;19.40;;
13855;SDS011;6998;53.608;9.958;2023-02-22T01:11:04;35.78;;;19.55;;
13855;SDS011;6998;53.608;9.958;2023-02-22T01:13:34;33.80;;;18.55;;
13855;SDS011;6998;53.608;9.958;2023-02-22T01:16:05;39.05;;;20.02;;
13855;SDS011;6998;53.608;9.958;2023-02-22T01:18:32;36.97;;;21.27;;
13855;SDS011;6998;53.608;9.958;2023-02-22T01:21:02;35.50;;;20.45;;
13855;SDS011;6998;53.608;9.958;2023-02-22T01:23:29;40.25;;;21.48;;
13855;SDS011;6998;53.608;9.958;2023-02-22T01:25:56;38.25;;;20.88;;
13855;SDS011;6998;53.608;9.958;2023-02-22T01:28:24;38.88;;;20.42;;
13855;SDS011;6998;53.608;9.958;2023-02-22T01:30:55;40.25;;;21.20;;
13855;SDS011;6998;53.608;9.958;2023-02-22T01:33:30;43.50;;;23.75;;
13855;SDS011;6998;53.608;9.958;2023-02-22T01:36:02;41.83;;;22.27;;
13855;SDS011;6998;53.608;9.958;2023-02-22T01:38:35;45.33;;;22.85;;
13855;SDS011;6998;53.608;9.958;2023-02-22T01:41:05;51.65;;;24.98;;
13855;SDS011;6998;53.608;9.958;2023-02-22T01:43:34;42.72;;;21.80;;
13855;SDS011;6998;53.608;9.958;2023-02-22T01:46:01;41.17;;;22.42;;
13855;SDS011;6998;53.608;9.958;2023-02-22T01:48:39;47.03;;;24.60;;
13855;SDS011;6998;53.608;9.958;2023-02-22T01:51:10;47.60;;;25.45;;
13855;SDS011;6998;53.608;9.958;2023-02-22T01:53:46;47.05;;;24.70;;
13855;SDS011;6998;53.608;9.958;2023-02-22T01:56:16;42.28;;;22.80;;
13855;SDS011;6998;53.608;9.958;2023-02-22T01:58:46;53.63;;;26.13;;
13855;SDS011;6998;53.608;9.958;2023-02-22T02:01:15;43.45;;;23.02;;
13855;SDS011;6998;53.608;9.958;2023-02-22T02:03:49;42.63;;;24.60;;
13855;SDS011;6998;53.608;9.958;2023-02-22T02:06:22;47.92;;;25.67;;
13855;SDS011;6998;53.608;9.958;2023-02-22T02:09:02;50.78;;;25.33;;
13855;SDS011;6998;53.608;9.958;2023-02-22T02:11:40;55.92;;;25.55;;
13855;SDS011;6998;53.608;9.958;2023-02-22T02:14:10;52.00;;;23.77;;
13855;SDS011;6998;53.608;9.958;2023-02-22T02:16:40;44.40;;;22.40;;
13855;SDS011;6998;53.608;9.958;2023-02-22T02:19:12;52.60;;;22.50;;
13855;SDS011;6998;53.608;9.958;2023-02-22T02:24:56;43.45;;;21.15;;
13855;SDS011;6998;53.608;9.958;2023-02-22T02:28:12;46.88;;;22.20;;
13855;SDS011;6998;53.608;9.958;2023-02-22T02:31:07;42.60;;;20.75;;
13855;SDS011;6998;53.608;9.958;2023-02-22T02:33:55;42.35;;;19.98;;
13855;SDS011;6998;53.608;9.958;2023-02-22T02:36:30;43.53;;;20.60;;
13855;SDS011;6998;53.608;9.958;2023-02-22T02:39:09;46.08;;;21.85;;
13855;SDS011;6998;53.608;9.958;2023-02-22T02:41:48;45.08;;;21.90;;
13855;SDS011;6998;53.608;9.958;2023-02-22T02:44:18;43.17;;;22.02;;
13855;SDS011;6998;53.608;9.958;2023-02-22T02:46:51;48.80;;;23.43;;
13855;SDS011;6998;53.608;9.958;2023-02-22T02:49:28;50.40;;;24.33;;
13855;SDS011;6998;53.608;9.958;2023-02-22T02:51:59;52.77;;;24.80;;
13855;SDS011;6998;53.608;9.958;2023-02-22T02:54:28;43.97;;;22.97;;
13855;SDS011;6998;53.608;9.958;2023-02-22T02:56:56;54.30;;;24.55;;
13855;SDS011;6998;53.608;9.958;2023-02-22T02:59:24;45.13;;;23.40;;
13855;SDS011;6998;53.608;9.958;2023-02-22T03:01:56;46.30;;;22.13;;
13855;SDS011;6998;53.608;9.958;2023-02-22T03:07:50;40.27;;;21.03;;
13855;SDS011;6998;53.608;9.958;2023-02-22T03:10:35;40.00;;;20.13;;
13855;SDS011;6998;53.608;9.958;2023-02-22T03:13:14;44.83;;;20.70;;
13855;SDS011;6998;53.608;9.958;2023-02-22T03:15:49;43.23;;;20.73;;
13855;SDS011;6998;53.608;9.958;2023-02-22T03:18:23;43.83;;;21.97;;
13855;SDS011;6998;53.608;9.958;2023-02-22T03:21:00;46.53;;;20.83;;
13855;SDS011;6998;53.608;9.958;2023-02-22T03:23:36;45.80;;;21.05;;
13855;SDS011;6998;53.608;9.958;2023-02-22T03:26:10;35.53;;;18.85;;
13855;SDS011;6998;53.608;9.958;2023-02-22T03:28:48;36.28;;;18.75;;
13855;SDS011;6998;53.608;9.958;2023-02-22T03:31:37;35.80;;;18.85;;
13855;SDS011;6998;53.608;9.958;2023-02-22T03:34:10;36.70;;;19.60;;
13855;SDS011;6998;53.608;9.958;2023-02-22T03:36:46;34.88;;;17.40;;
13855;SDS011;6998;53.608;9.958;2023-02-22T03:39:25;31.37;;;18.53;;
13855;SDS011;6998;53.608;9.958;2023-02-22T03:41:57;41.55;;;19.35;;
13855;SDS011;6998;53.608;9.958;2023-02-22T03:44:30;35.28;;;18.88;;
13855;SDS011;6998;53.608;9.958;2023-02-22T03:47:07;32.25;;;18.88;;
13855;SDS011;6998;53.608;9.958;2023-02-22T03:49:43;41.15;;;20.77;;
13855;SDS011;6998;53.608;9.958;2023-02-22T03:52:18;34.20;;;20.13;;
13855;SDS011;6998;53.608;9.958;2023-02-22T03:54:50;32.10;;;19.87;;
13855;SDS011;6998;53.608;9.958;2023-02-22T03:57:21;33.38;;;19.33;;
13855;SDS011;6998;53.608;9.958;2023-02-22T03:59:51;30.90;;;19.35;;
13855;SDS011;6998;53.608;9.958;2023-02-22T04:02:18;35.78;;;20.02;;
13855;SDS011;6998;53.608;9.958;2023-02-22T04:04:51;30.63;;;18.50;;
13855;SDS011;6998;53.608;9.958;2023-02-22T04:07:22;33.60;;;18.42;;
13855;SDS011;6998;53.608;9.958;2023-02-22T04:09:55;32.65;;;17.70;;
13855;SDS011;6998;53.608;9.958;2023-02-22T04:12:26;40.10;;;19.85;;
13855;SDS011;6998;53.608;9.958;2023-02-22T04:14:55;32.78;;;18.83;;
13855;SDS011;6998;53.608;9.958;2023-02-22T04:17:22;36.67;;;20.98;;
13855;SDS011;6998;53.608;9.958;2023-02-22T04:20:03;34.78;;;18.83;;
13855;SDS011;6998;53.608;9.958;2023-02-22T04:22:35;31.20;;;19.30;;
13855;SDS011;6998;53.608;9.958;2023-02-22T04:25:07;35.78;;;19.65;;
13855;SDS011;6998;53.608;9.958;2023-02-22T04:27:34;35.33;;;19.75;;
13855;SDS011;6998;53.608;9.958;2023-02-22T04:30:17;33.03;;;18.60;;
13855;SDS011;6998;53.608;9.958;2023-02-22T04:32:45;33.17;;;18.75;;
13855;SDS011;6998;53.608;9.958;2023-02-22T04:35:14;31.92;;;18.75;;
13855;SDS011;6998;53.608;9.958;2023-02-22T04:37:45;28.58;;;17.27;;
13855;SDS011;6998;53.608;9.958;2023-02-22T04:40:11;38.67;;;20.15;;
13855;SDS011;6998;53.608;9.958;2023-02-22T04:42:39;38.15;;;21.17;;
13855;SDS011;6998;53.608;9.958;2023-02-22T04:45:06;39.13;;;19.65;;
13855;SDS011;6998;53.608;9.958;2023-02-22T04:47:34;35.25;;;20.05;;
13855;SDS011;6998;53.608;9.958;2023-02-22T04:50:02;37.67;;;20.05;;
13855;SDS011;6998;53.608;9.958;2023-02-22T04:52:35;38.58;;;20.00;;
13855;SDS011;6998;53.608;9.958;2023-02-22T04:55:09;34.78;;;19.23;;
13855;SDS011;6998;53.608;9.958;2023-02-22T04:57:38;29.48;;;18.17;;
13855;SDS011;6998;53.608;9.958;2023-02-22T05:00:15;33.15;;;18.65;;
13855;SDS011;6998;53.608;9.958;2023-02-22T05:02:47;33.83;;;18.92;;
13855;SDS011;6998;53.608;9.958;2023-02-22T05:05:15;35.20;;;20.02;;
13855;SDS011;6998;53.608;9.958;2023-02-22T05:07:45;32.03;;;18.38;;
13855;SDS011;6998;53.608;9.958;2023-02-22T05:10:13;31.70;;;18.88;;
13855;SDS011;6998;53.608;9.958;2023-02-22T05:12:40;32.63;;;19.45;;
13855;SDS011;6998;53.608;9.958;2023-02-22T05:15:08;36.63;;;20.73;;
13855;SDS011;6998;53.608;9.958;2023-02-22T05:17:36;39.80;;;21.80;;
13855;SDS011;6998;53.608;9.958;2023-02-22T05:20:03;36.83;;;19.42;;
13855;SDS011;6998;53.608;9.958;2023-02-22T05:22:34;35.47;;;20.20;;
13855;SDS011;6998;53.608;9.958;2023-02-22T05:25:03;49.38;;;22.13;;
13855;SDS011;6998;53.608;9.958;2023-02-22T05:30:23;44.90;;;21.42;;
13855;SDS011;6998;53.608;9.958;2023-02-22T05:32:52;36.17;;;18.98;;
13855;SDS011;6998;53.608;9.958;2023-02-22T05:35:21;47.70;;;22.17;;
13855;SDS011;6998;53.608;9.958;2023-02-22T05:37:48;44.55;;;20.58;;
13855;SDS011;6998;53.608;9.958;2023-02-22T05:40:24;46.08;;;21.35;;
13855;SDS011;6998;53.608;9.958;2023-02-22T05:42:54;46.42;;;21.50;;
13855;SDS011;6998;53.608;9.958;2023-02-22T05:45:23;42.92;;;20.70;;
13855;SDS011;6998;53.608;9.958;2023-02-22T05:47:52;48.83;;;21.80;;
13855;SDS011;6998;53.608;9.958;2023-02-22T05:50:20;44.63;;;21.73;;
13855;SDS011;6998;53.608;9.958;2023-02-22T05:52:47;47.67;;;22.10;;
13855;SDS011;6998;53.608;9.958;2023-02-22T05:55:15;53.05;;;22.77;;
13855;SDS011;6998;53.608;9.958;2023-02-22T05:57:45;48.27;;;22.70;;
13855;SDS011;6998;53.608;9.958;2023-02-22T06:00:15;47.78;;;21.95;;
13855;SDS011;6998;53.608;9.958;2023-02-22T06:02:52;57.60;;;23.85;;
13855;SDS011;6998;53.608;9.958;2023-02-22T06:05:21;52.73;;;22.57;;
13855;SDS011;6998;53.608;9.958;2023-02-22T06:07:48;49.40;;;22.00;;
13855;SDS011;6998;53.608;9.958;2023-02-22T06:10:18;53.97;;;23.00;;
13855;SDS011;6998;53.608;9.958;2023-02-22T06:12:45;50.28;;;22.40;;
13855;SDS011;6998;53.608;9.958;2023-02-22T06:15:12;55.83;;;23.08;;
13855;SDS011;6998;53.608;9.958;2023-02-22T06:17:41;50.07;;;22.33;;
13855;SDS011;6998;53.608;9.958;2023-02-22T06:20:09;54.43;;;22.90;;
13855;SDS011;6998;53.608;9.958;2023-02-22T06:22:37;55.70;;;23.53;;
13855;SDS011;6998;53.608;9.958;2023-02-22T06:25:05;53.70;;;24.20;;
13855;SDS011;6998;53.608;9.958;2023-02-22T06:27:33;55.07;;;23.70;;
13855;SDS011;6998;53.608;9.958;2023-02-22T06:30:01;63.17;;;27.13;;
13855;SDS011;6998;53.608;9.958;2023-02-22T06:32:30;51.53;;;23.38;;
13855;SDS011;6998;53.608;9.958;2023-02-22T06:34:58;54.33;;;23.15;;
13855;SDS011;6998;53.608;9.958;2023-02-22T06:37:25;50.20;;;23.67;;
13855;SDS011;6998;53.608;9.958;2023-02-22T06:39:52;52.17;;;23.73;;
13855;SDS011;6998;53.608;9.958;2023-02-22T06:42:19;54.08;;;23.98;;
13855;SDS011;6998;53.608;9.958;2023-02-22T06:44:46;46.15;;;21.25;;
13855;SDS011;6998;53.608;9.958;2023-02-22T06:47:13;58.33;;;24.90;;
13855;SDS011;6998;53.608;9.958;2023-02-22T06:49:41;50.00;;;24.00;;
13855;SDS011;6998;53.608;9.958;2023-02-22T06:52:08;51.60;;;23.10;;
13855;SDS011;6998;53.608;9.958;2023-02-22T06:54:37;47.33;;;22.40;;
13855;SDS011;6998;53.608;9.958;2023-02-22T06:57:06;56.05;;;25.00;;
13855;SDS011;6998;53.608;9.958;2023-02-22T06:59:34;50.17;;;22.42;;
13855;SDS011;6998;53.608;9.958;2023-02-22T07:02:01;52.90;;;23.42;;
13855;SDS011;6998;53.608;9.958;2023-02-22T07:04:29;65.57;;;26.17;;
13855;SDS011;6998;53.608;9.958;2023-02-22T07:06:58;54.13;;;24.17;;
13855;SDS011;6998;53.608;9.958;2023-02-22T07:09:25;60.55;;;25.83;;
13855;SDS011;6998;53.608;9.958;2023-02-22T07:11:57;60.63;;;24.50;;
13855;SDS011;6998;53.608;9.958;2023-02-22T07:14:24;49.13;;;22.95;;
13855;SDS011;6998;53.608;9.958;2023-02-22T07:16:51;56.25;;;23.20;;
13855;SDS011;6998;53.608;9.958;2023-02-22T07:19:18;52.33;;;24.08;;
13855;SDS011;6998;53.608;9.958;2023-02-22T07:21:45;54.75;;;22.67;;
13855;SDS011;6998;53.608;9.958;2023-02-22T07:24:16;55.83;;;24.37;;
13855;SDS011;6998;53.608;9.958;2023-02-22T07:26:44;52.60;;;23.27;;
13855;SDS011;6998;53.608;9.958;2023-02-22T07:29:11;61.20;;;25.80;;
13855;SDS011;6998;53.608;9.958;2023-02-22T07:31:38;48.03;;;21.40;;
13855;SDS011;6998;53.608;9.958;2023-02-22T07:34:06;54.70;;;23.85;;
13855;SDS011;6998;53.608;9.958;2023-02-22T07:36:33;55.22;;;23.77;;
13855;SDS011;6998;53.608;9.958;2023-02-22T07:39:00;44.22;;;21.48;;
13855;SDS011;6998;53.608;9.958;2023-02-22T07:41:28;50.53;;;22.23;;
13855;SDS011;6998;53.608;9.958;2023-02-22T07:43:55;50.40;;;23.63;;
13855;SDS011;6998;53.608;9.958;2023-02-22T07:46:22;41.17;;;21.05;;
13855;SDS011;6998;53.608;9.958;2023-02-22T07:48:49;44.17;;;21.50;;
13855;SDS011;6998;53.608;9.958;2023-02-22T07:51:16;37.45;;;21.50;;
13855;SDS011;6998;53.608;9.958;2023-02-22T07:53:44;40.83;;;22.35;;
13855;SDS011;6998;53.608;9.958;2023-02-22T07:56:11;41.20;;;22.02;;
13855;SDS011;6998;53.608;9.958;2023-02-22T07:58:40;40.67;;;21.23;;
13855;SDS011;6998;53.608;9.958;2023-02-22T08:01:06;41.15;;;21.17;;
13855;SDS011;6998;53.608;9.958;2023-02-22T08:03:34;38.80;;;20.35;;
13855;SDS011;6998;53.608;9.958;2023-02-22T08:06:02;32.78;;;19.65;;
13855;SDS011;6998;53.608;9.958;2023-02-22T08:08:31;38.55;;;20.45;;
13855;SDS011;6998;53.608;9.958;2023-02-22T08:11:01;39.90;;;21.15;;
13855;SDS011;6998;53.608;9.958;2023-02-22T08:13:28;33.03;;;20.33;;
13855;SDS011;6998;53.608;9.958;2023-02-22T08:15:56;34.35;;;20.02;;
13855;SDS011;6998;53.608;9.958;2023-02-22T08:18:23;35.97;;;20.58;;
13855;SDS011;6998;53.608;9.958;2023-02-22T08:20:51;35.65;;;20.77;;
13855;SDS011;6998;53.608;9.958;2023-02-22T08:23:19;34.90;;;20.65;;
13855;SDS011;6998;53.608;9.958;2023-02-22T08:25:49;38.53;;;20.65;;
13855;SDS011;6998;53.608;9.958;2023-02-22T08:28:17;35.22;;;20.08;;
13855;SDS011;6998;53.608;9.958;2023-02-22T08:30:46;36.80;;;20.17;;
13855;SDS011;6998;53.608;9.958;2023-02-22T08:33:15;36.28;;;20.08;;
13855;SDS011;6998;53.608;9.958;2023-02-22T08:35:43;34.72;;;20.27;;
13855;SDS011;6998;53.608;9.958;2023-02-22T08:38:14;34.13;;;20.00;;
13855;SDS011;6998;53.608;9.958;2023-02-22T08:40:43;31.90;;;19.70;;
13855;SDS011;6998;53.608;9.958;2023-02-22T08:43:10;29.52;;;19.33;;
13855;SDS011;6998;53.608;9.958;2023-02-22T08:45:38;27.95;;;17.80;;
13855;SDS011;6998;53.608;9.958;2023-02-22T08:48:05;27.80;;;18.27;;
13855;SDS011;6998;53.608;9.958;2023-02-22T08:50:33;25.98;;;18.00;;
13855;SDS011;6998;53.608;9.958;2023-02-22T08:53:03;26.58;;;18.25;;
13855;SDS011;6998;53.608;9.958;2023-02-22T08:55:31;25.42;;;17.40;;
13855;SDS011;6998;53.608;9.958;2023-02-22T08:57:59;25.85;;;17.35;;
13855;SDS011;6998;53.608;9.958;2023-02-22T09:00:28;25.48;;;17.25;;
13855;SDS011;6998;53.608;9.958;2023-02-22T09:02:57;25.40;;;17.25;;
13855;SDS011;6998;53.608;9.958;2023-02-22T09:05:24;25.73;;;17.52;;
13855;SDS011;6998;53.608;9.958;2023-02-22T09:07:52;23.88;;;16.83;;
13855;SDS011;6998;53.608;9.958;2023-02-22T09:10:22;24.58;;;17.00;;
13855;SDS011;6998;53.608;9.958;2023-02-22T09:12:50;24.33;;;16.80;;
13855;SDS011;6998;53.608;9.958;2023-02-22T09:15:19;24.52;;;17.02;;
13855;SDS011;6998;53.608;9.958;2023-02-22T09:17:46;25.27;;;16.85;;
13855;SDS011;6998;53.608;9.958;2023-02-22T09:20:13;25.50;;;15.98;;
13855;SDS011;6998;53.608;9.958;2023-02-22T09:22:43;24.20;;;17.42;;
13855;SDS011;6998;53.608;9.958;2023-02-22T09:25:12;24.70;;;18.02;;
13855;SDS011;6998;53.608;9.958;2023-02-22T09:27:40;25.33;;;17.95;;
13855;SDS011;6998;53.608;9.958;2023-02-22T09:30:10;28.35;;;18.83;;
13855;SDS011;6998;53.608;9.958;2023-02-22T09:32:41;25.88;;;18.98;;
13855;SDS011;6998;53.608;9.958;2023-02-22T09:35:08;30.92;;;21.40;;
13855;SDS011;6998;53.608;9.958;2023-02-22T09:37:34;31.45;;;21.77;;
13855;SDS011;6998;53.608;9.958;2023-02-22T09:40:01;34.97;;;22.67;;
13855;SDS011;6998;53.608;9.958;2023-02-22T09:42:36;34.60;;;22.58;;
13855;SDS011;6998;53.608;9.958;2023-02-22T09:45:12;34.00;;;21.95;;
13855;SDS011;6998;53.608;9.958;2023-02-22T09:47:44;36.05;;;23.75;;
13855;SDS011;6998;53.608;9.958;2023-02-22T09:50:15;33.95;;;23.10;;
13855;SDS011;6998;53.608;9.958;2023-02-22T09:52:50;33.60;;;22.95;;
13855;SDS011;6998;53.608;9.958;2023-02-22T09:55:27;32.20;;;23.25;;
13855;SDS011;6998;53.608;9.958;2023-02-22T09:58:01;31.25;;;21.70;;
13855;SDS011;6998;53.608;9.958;2023-02-22T10:00:31;31.73;;;21.35;;
13855;SDS011;6998;53.608;9.958;2023-02-22T10:03:05;30.50;;;21.70;;
13855;SDS011;6998;53.608;9.958;2023-02-22T10:05:43;29.75;;;21.90;;
13855;SDS011;6998;53.608;9.958;2023-02-22T10:08:15;28.73;;;20.60;;
13855;SDS011;6998;53.608;9.958;2023-02-22T10:10:44;28.33;;;19.92;;
13855;SDS011;6998;53.608;9.958;2023-02-22T10:13:20;30.45;;;20.65;;
13855;SDS011;6998;53.608;9.958;2023-02-22T10:15:54;27.20;;;20.30;;
13855;SDS011;6998;53.608;9.958;2023-02-22T10:18:37;31.65;;;21.80;;
13855;SDS011;6998;53.608;9.958;2023-02-22T10:21:28;27.38;;;19.50;;
13855;SDS011;6998;53.608;9.958;2023-02-22T10:24:05;28.77;;;19.73;;
13855;SDS011;6998;53.608;9.958;2023-02-22T10:26:40;28.10;;;20.48;;
13855;SDS011;6998;53.608;9.958;2023-02-22T10:29:13;29.05;;;20.65;;
13855;SDS011;6998;53.608;9.958;2023-02-22T10:31:47;28.77;;;21.52;;
13855;SDS011;6998;53.608;9.958;2023-02-22T10:34:24;29.77;;;20.92;;
13855;SDS011;6998;53.608;9.958;2023-02-22T10:36:54;27.05;;;20.35;;
13855;SDS011;6998;53.608;9.958;2023-02-22T10:39:35;27.65;;;19.73;;
13855;SDS011;6998;53.608;9.958;2023-02-22T10:42:05;25.98;;;19.83;;
13855;SDS011;6998;53.608;9.958;2023-02-22T10:44:37;25.65;;;18.88;;
13855;SDS011;6998;53.608;9.958;2023-02-22T10:47:10;27.55;;;19.85;;
13855;SDS011;6998;53.608;9.958;2023-02-22T10:49:42;24.38;;;17.58;;
13855;SDS011;6998;53.608;9.958;2023-02-22T10:52:35;22.70;;;17.73;;
13855;SDS011;6998;53.608;9.958;2023-02-22T10:55:20;22.90;;;17.58;;
13855;SDS011;6998;53.608;9.958;2023-02-22T10:57:48;27.27;;;18.27;;
13855;SDS011;6998;53.608;9.958;2023-02-22T11:00:29;24.48;;;17.23;;
13855;SDS011;6998;53.608;9.958;2023-02-22T11:03:31;24.35;;;17.80;;
13855;SDS011;6998;53.608;9.958;2023-02-22T11:05:54;26.17;;;17.27;;
13855;SDS011;6998;53.608;9.958;2023-02-22T11:08:50;24.77;;;17.80;;
13855;SDS011;6998;53.608;9.958;2023-02-22T11:11:36;26.85;;;18.52;;
13855;SDS011;6998;53.608;9.958;2023-02-22T11:14:04;26.00;;;18.95;;
13855;SDS011;6998;53.608;9.958;2023-02-22T11:22:31;23.50;;;17.92;;
13855;SDS011;6998;53.608;9.958;2023-02-22T11:25:05;23.20;;;18.13;;
13855;SDS011;6998;53.608;9.958;2023-02-22T11:27:34;22.83;;;18.25;;
13855;SDS011;6998;53.608;9.958;2023-02-22T11:30:14;21.20;;;17.25;;
13855;SDS011;6998;53.608;9.958;2023-02-22T11:32:53;22.83;;;18.05;;
13855;SDS011;6998;53.608;9.958;2023-02-22T11:35:34;20.30;;;16.85;;
13855;SDS011;6998;53.608;9.958;2023-02-22T11:38:08;23.70;;;17.70;;
13855;SDS011;6998;53.608;9.958;2023-02-22T11:40:40;21.38;;;17.00;;
13855;SDS011;6998;53.608;9.958;2023-02-22T11:43:14;23.65;;;16.85;;
13855;SDS011;6998;53.608;9.958;2023-02-22T11:45:57;20.88;;;16.88;;
13855;SDS011;6998;53.608;9.958;2023-02-22T11:51:24;21.80;;;16.08;;
13855;SDS011;6998;53.608;9.958;2023-02-22T11:54:06;22.40;;;17.20;;
13855;SDS011;6998;53.608;9.958;2023-02-22T11:56:53;20.10;;;16.42;;
13855;SDS011;6998;53.608;9.958;2023-02-22T11:59:34;22.23;;;17.17;;
13855;SDS011;6998;53.608;9.958;2023-02-22T12:02:30;21.75;;;16.17;;
13855;SDS011;6998;53.608;9.958;2023-02-22T12:05:27;23.45;;;16.58;;
13855;SDS011;6998;53.608;9.958;2023-02-22T12:08:10;23.42;;;17.05;;
13855;SDS011;6998;53.608;9.958;2023-02-22T12:10:52;19.80;;;15.15;;
13855;SDS011;6998;53.608;9.958;2023-02-22T12:13:45;20.20;;;14.88;;
13855;SDS011;6998;53.608;9.958;2023-02-22T12:16:51;20.50;;;15.80;;
13855;SDS011;6998;53.608;9.958;2023-02-22T12:19:35;19.60;;;15.73;;
13855;SDS011;6998;53.608;9.958;2023-02-22T12:22:10;18.98;;;15.55;;
13855;SDS011;6998;53.608;9.958;2023-02-22T12:24:47;19.58;;;15.05;;
13855;SDS011;6998;53.608;9.958;2023-02-22T12:27:24;19.77;;;15.55;;
13855;SDS011;6998;53.608;9.958;2023-02-22T12:30:17;18.58;;;14.88;;
13855;SDS011;6998;53.608;9.958;2023-02-22T12:33:15;18.80;;;15.02;;
13855;SDS011;6998;53.608;9.958;2023-02-22T12:35:59;18.48;;;15.32;;
13855;SDS011;6998;53.608;9.958;2023-02-22T12:38:49;18.35;;;14.30;;
13855;SDS011;6998;53.608;9.958;2023-02-22T12:41:38;16.95;;;13.73;;
13855;SDS011;6998;53.608;9.958;2023-02-22T12:44:16;20.65;;;14.10;;
13855;SDS011;6998;53.608;9.958;2023-02-22T12:46:54;19.83;;;14.70;;
13855;SDS011;6998;53.608;9.958;2023-02-22T12:49:27;17.25;;;13.75;;
13855;SDS011;6998;53.608;9.958;2023-02-22T12:52:20;17.50;;;14.02;;
13855;SDS011;6998;53.608;9.958;2023-02-22T12:58:17;17.42;;;13.57;;
13855;SDS011;6998;53.608;9.958;2023-02-22T13:00:55;16.27;;;13.52;;
13855;SDS011;6998;53.608;9.958;2023-02-22T13:03:48;18.95;;;14.55;;
13855;SDS011;6998;53.608;9.958;2023-02-22T13:06:35;19.27;;;15.18;;
13855;SDS011;6998;53.608;9.958;2023-02-22T13:12:08;20.23;;;15.20;;
13855;SDS011;6998;53.608;9.958;2023-02-22T13:14:44;18.67;;;14.25;;
13855;SDS011;6998;53.608;9.958;2023-02-22T13:17:21;19.30;;;14.82;;
13855;SDS011;6998;53.608;9.958;2023-02-22T13:19:58;20.73;;;14.70;;
13855;SDS011;6998;53.608;9.958;2023-02-22T13:22:36;17.02;;;13.32;;
13855;SDS011;6998;53.608;9.958;2023-02-22T13:25:09;17.13;;;13.85;;
13855;SDS011;6998;53.608;9.958;2023-02-22T13:27:42;15.07;;;12.65;;
13855;SDS011;6998;53.608;9.958;2023-02-22T13:30:19;15.80;;;13.07;;
13855;SDS011;6998;53.608;9.958;2023-02-22T13:32:58;17.42;;;13.30;;
13855;SDS011;6998;53.608;9.958;2023-02-22T13:38:41;16.23;;;13.02;;
13855;SDS011;6998;53.608;9.958;2023-02-22T13:44:30;18.52;;;13.77;;
13855;SDS011;6998;53.608;9.958;2023-02-22T13:47:15;16.17;;;12.95;;
13855;SDS011;6998;53.608;9.958;2023-02-22T13:49:55;15.38;;;12.52;;
13855;SDS011;6998;53.608;9.958;2023-02-22T13:52:37;16.45;;;12.85;;
13855;SDS011;6998;53.608;9.958;2023-02-22T13:55:07;14.13;;;12.13;;
13855;SDS011;6998;53.608;9.958;2023-02-22T13:57:42;14.10;;;12.05;;
13855;SDS011;6998;53.608;9.958;2023-02-22T14:00:21;16.75;;;12.98;;
13855;SDS011;6998;53.608;9.958;2023-02-22T14:03:16;15.07;;;11.85;;
13855;SDS011;6998;53.608;9.958;2023-02-22T14:06:10;14.82;;;11.45;;
13855;SDS011;6998;53.608;9.958;2023-02-22T14:09:39;15.23;;;12.13;;
13855;SDS011;6998;53.608;9.958;2023-02-22T14:12:48;16.63;;;12.93;;
13855;SDS011;6998;53.608;9.958;2023-02-22T14:15:17;14.20;;;11.55;;
13855;SDS011;6998;53.608;9.958;2023-02-22T14:18:01;18.25;;;13.32;;
13855;SDS011;6998;53.608;9.958;2023-02-22T14:20:42;16.20;;;12.88;;
13855;SDS011;6998;53.608;9.958;2023-02-22T14:23:26;16.25;;;12.55;;
13855;SDS011;6998;53.608;9.958;2023-02-22T14:26:09;15.57;;;11.90;;
13855;SDS011;6998;53.608;9.958;2023-02-22T14:28:45;17.85;;;12.98;;
13855;SDS011;6998;53.608;9.958;2023-02-22T14:31:20;16.38;;;11.40;;
13855;SDS011;6998;53.608;9.958;2023-02-22T14:34:12;12.77;;;11.25;;
13855;SDS011;6998;53.608;9.958;2023-02-22T14:36:43;14.85;;;11.57;;
13855;SDS011;6998;53.608;9.958;2023-02-22T14:39:21;13.32;;;10.90;;
13855;SDS011;6998;53.608;9.958;2023-02-22T14:41:59;15.27;;;11.13;;
13855;SDS011;6998;53.608;9.958;2023-02-22T14:44:32;13.75;;;11.38;;
13855;SDS011;6998;53.608;9.958;2023-02-22T14:47:06;13.38;;;10.45;;
13855;SDS011;6998;53.608;9.958;2023-02-22T14:49:40;14.77;;;11.85;;
13855;SDS011;6998;53.608;9.958;2023-02-22T14:52:14;14.27;;;11.90;;
13855;SDS011;6998;53.608;9.958;2023-02-22T14:55:11;17.02;;;12.75;;
13855;SDS011;6998;53.608;9.958;2023-02-22T14:57:53;17.88;;;12.57;;
13855;SDS011;6998;53.608;9.958;2023-02-22T15:00:35;16.08;;;12.02;;
13855;SDS011;6998;53.608;9.958;2023-02-22T15:03:15;16.13;;;12.73;;
13855;SDS011;6998;53.608;9.958;2023-02-22T15:05:54;16.80;;;12.10;;
13855;SDS011;6998;53.608;9.958;2023-02-22T15:08:24;16.35;;;12.45;;
13855;SDS011;6998;53.608;9.958;2023-02-22T15:10:56;16.38;;;12.68;;
13855;SDS011;6998;53.608;9.958;2023-02-22T15:13:32;15.63;;;12.30;;
13855;SDS011;6998;53.608;9.958;2023-02-22T15:16:01;15.60;;;12.60;;
13855;SDS011;6998;53.608;9.958;2023-02-22T15:18:32;16.50;;;12.88;;
13855;SDS011;6998;53.608;9.958;2023-02-22T15:21:03;18.80;;;13.30;;
13855;SDS011;6998;53.608;9.958;2023-02-22T15:23:53;21.08;;;13.73;;
13855;SDS011;6998;53.608;9.958;2023-02-22T15:26:26;16.20;;;12.65;;
13855;SDS011;6998;53.608;9.958;2023-02-22T15:29:12;17.95;;;13.00;;
13855;SDS011;6998;53.608;9.958;2023-02-22T15:31:50;18.77;;;12.88;;
13855;SDS011;6998;53.608;9.958;2023-02-22T15:34:18;19.10;;;13.15;;
13855;SDS011;6998;53.608;9.958;2023-02-22T15:36:48;17.13;;;12.80;;
13855;SDS011;6998;53.608;9.958;2023-02-22T15:39:19;16.35;;;13.07;;
13855;SDS011;6998;53.608;9.958;2023-02-22T15:41:59;20.05;;;14.43;;